createdAt,value
2023-02-06T00:01:55.295Z,16.60
2023-02-06T00:04:32.051Z,14.67
2023-02-06T00:07:00.467Z,14.87
2023-02-06T00:09:29.307Z,13.53
2023-02-06T00:12:00.711Z,18.70
2023-02-06T00:14:30.586Z,15.23
2023-02-06T00:17:03.975Z,17.37
2023-02-06T00:19:32.701Z,16.00
2023-02-06T00:22:03.246Z,17.57
2023-02-06T00:24:31.946Z,14.30
2023-02-06T00:27:04.380Z,18.60
2023-02-06T00:29:38.789Z,14.33
2023-02-06T00:32:09.538Z,18.33
2023-02-06T00:34:38.217Z,16.27
2023-02-06T00:37:10.180Z,19.10
2023-02-06T00:39:39.658Z,16.27
2023-02-06T00:42:10.005Z,20.00
2023-02-06T00:44:45.128Z,17.20
2023-02-06T00:47:18.927Z,18.40
2023-02-06T00:49:47.945Z,20.60
2023-02-06T00:52:16.832Z,25.43
2023-02-06T00:54:52.065Z,20.33
2023-02-06T00:57:22.566Z,17.60
2023-02-06T00:59:52.868Z,20.00
2023-02-06T01:02:23.432Z,15.83
2023-02-06T01:04:52.884Z,18.63
2023-02-06T01:07:20.717Z,18.77
2023-02-06T01:09:50.185Z,16.93
2023-02-06T01:12:21.599Z,19.40
2023-02-06T01:14:49.775Z,19.60
2023-02-06T01:17:18.864Z,19.90
2023-02-06T01:19:48.436Z,19.20
2023-02-06T01:22:17.239Z,18.27
2023-02-06T01:24:48.637Z,17.20
2023-02-06T01:27:20.574Z,15.17
2023-02-06T01:29:53.295Z,19.70
2023-02-06T01:32:22.920Z,18.03
2023-02-06T01:34:52.531Z,21.80
2023-02-06T01:37:21.068Z,18.73
2023-02-06T01:39:49.408Z,17.87
2023-02-06T01:42:21.391Z,22.90
2023-02-06T01:44:49.743Z,19.13
2023-02-06T01:47:19.217Z,18.07
2023-02-06T01:49:53.382Z,18.00
2023-02-06T01:52:25.627Z,19.47
2023-02-06T01:54:58.638Z,20.07
2023-02-06T01:57:28.943Z,21.80
2023-02-06T02:00:09.787Z,20.60
2023-02-06T02:02:45.797Z,22.40
2023-02-06T02:05:19.128Z,19.73
2023-02-06T02:08:01.824Z,19.30
2023-02-06T02:13:18.486Z,21.63
2023-02-06T02:16:00.115Z,20.20
2023-02-06T02:18:49.938Z,23.23
2023-02-06T02:21:45.018Z,21.73
2023-02-06T02:24:30.266Z,19.80
2023-02-06T02:27:33.008Z,18.70
2023-02-06T02:30:37.019Z,18.87
2023-02-06T02:39:11.296Z,23.73
2023-02-06T02:41:44.860Z,21.30
2023-02-06T02:44:22.308Z,15.63
2023-02-06T02:46:56.433Z,19.07
2023-02-06T02:49:28.469Z,20.27
2023-02-06T02:51:58.847Z,22.73
2023-02-06T02:54:29.033Z,19.67
2023-02-06T02:57:02.372Z,21.60
2023-02-06T02:59:36.791Z,18.50
2023-02-06T03:02:08.522Z,20.77
2023-02-06T03:04:42.298Z,24.40
2023-02-06T03:07:23.956Z,21.80
2023-02-06T03:10:06.979Z,21.67
2023-02-06T03:12:43.891Z,19.90
2023-02-06T03:15:25.906Z,25.00
2023-02-06T03:17:59.865Z,22.80
2023-02-06T03:20:29.333Z,21.93
2023-02-06T03:23:01.409Z,19.73
2023-02-06T03:28:31.423Z,22.27
2023-02-06T03:31:04.857Z,22.07
2023-02-06T03:33:37.173Z,21.93
2023-02-06T03:36:05.754Z,21.03
2023-02-06T03:38:36.728Z,19.90
2023-02-06T03:41:07.988Z,25.00
2023-02-06T03:43:40.669Z,22.43
2023-02-06T03:46:13.715Z,19.80
2023-02-06T03:48:44.208Z,22.70
2023-02-06T03:51:23.859Z,20.80
2023-02-06T03:54:07.796Z,17.43
2023-02-06T03:56:45.553Z,21.10
2023-02-06T03:59:13.893Z,22.10
2023-02-06T04:01:52.390Z,21.30
2023-02-06T04:04:24.935Z,24.53
2023-02-06T04:06:57.254Z,23.70
2023-02-06T04:09:27.035Z,18.67
2023-02-06T04:11:54.858Z,22.73
2023-02-06T04:14:23.886Z,23.73
2023-02-06T04:16:54.463Z,20.97
2023-02-06T04:19:23.436Z,24.27
2023-02-06T04:21:52.051Z,27.40
2023-02-06T04:24:19.914Z,27.30
2023-02-06T04:26:49.571Z,24.33
2023-02-06T04:29:20.106Z,26.43
2023-02-06T04:31:48.205Z,27.87
2023-02-06T04:34:18.872Z,29.60
2023-02-06T04:36:49.851Z,29.47
2023-02-06T04:39:24.816Z,26.10
2023-02-06T04:41:57.831Z,23.60
2023-02-06T04:44:27.381Z,26.53
2023-02-06T04:46:57.720Z,27.33
2023-02-06T04:49:25.360Z,33.53
2023-02-06T04:51:53.948Z,24.90
2023-02-06T04:54:21.714Z,27.63
2023-02-06T04:56:49.462Z,32.33
2023-02-06T04:59:18.527Z,26.00
2023-02-06T05:01:46.581Z,30.47
2023-02-06T05:04:14.214Z,24.33
2023-02-06T05:06:41.966Z,25.13
2023-02-06T05:09:09.737Z,26.93
2023-02-06T05:11:37.306Z,30.23
2023-02-06T05:14:05.086Z,36.07
2023-02-06T05:16:34.052Z,24.83
2023-02-06T05:19:01.950Z,30.30
2023-02-06T05:21:29.730Z,25.73
2023-02-06T05:23:57.585Z,32.90
2023-02-06T05:26:25.330Z,28.13
2023-02-06T05:28:53.294Z,27.27
2023-02-06T05:31:21.141Z,28.00
2023-02-06T05:33:52.914Z,23.57
2023-02-06T05:36:21.373Z,29.20
2023-02-06T05:38:49.659Z,24.63
2023-02-06T05:41:17.404Z,28.03
2023-02-06T05:43:45.571Z,30.57
2023-02-06T05:46:13.496Z,27.70
2023-02-06T05:48:41.611Z,30.07
2023-02-06T05:51:10.643Z,31.73
2023-02-06T05:53:38.254Z,29.93
2023-02-06T05:56:06.621Z,27.57
2023-02-06T05:58:34.356Z,32.43
2023-02-06T06:01:01.933Z,29.63
2023-02-06T06:03:31.384Z,30.30
2023-02-06T06:06:02.563Z,25.73
2023-02-06T06:08:32.578Z,27.27
2023-02-06T06:11:02.186Z,26.90
2023-02-06T06:13:30.173Z,29.30
2023-02-06T06:15:57.942Z,31.20
2023-02-06T06:18:25.542Z,29.53
2023-02-06T06:20:54.280Z,29.67
2023-02-06T06:23:21.988Z,24.20
2023-02-06T06:25:51.437Z,26.40
2023-02-06T06:28:19.152Z,27.57
2023-02-06T06:30:47.019Z,35.53
2023-02-06T06:33:16.606Z,30.63
2023-02-06T06:35:44.340Z,26.53
2023-02-06T06:38:11.936Z,26.37
2023-02-06T06:40:40.130Z,26.13
2023-02-06T06:43:10.350Z,32.10
2023-02-06T06:45:38.344Z,30.43
2023-02-06T06:48:06.806Z,26.57
2023-02-06T06:50:34.810Z,31.70
2023-02-06T06:53:02.658Z,30.43
2023-02-06T06:55:30.840Z,21.43
2023-02-06T06:57:58.491Z,25.50
2023-02-06T07:00:27.566Z,27.10
2023-02-06T07:02:57.572Z,25.73
2023-02-06T07:05:25.315Z,33.40
2023-02-06T07:07:53.063Z,26.90
2023-02-06T07:10:20.932Z,26.10
2023-02-06T07:12:48.673Z,21.70
2023-02-06T07:15:16.256Z,26.30
2023-02-06T07:17:45.147Z,25.70
2023-02-06T07:20:13.394Z,29.23
2023-02-06T07:22:41.023Z,26.53
2023-02-06T07:25:09.160Z,25.20
2023-02-06T07:27:36.861Z,31.83
2023-02-06T07:30:06.534Z,27.77
2023-02-06T07:32:35.691Z,25.70
2023-02-06T07:35:05.622Z,26.80
2023-02-06T07:37:33.451Z,27.43
2023-02-06T07:40:01.368Z,23.70
2023-02-06T07:42:29.013Z,20.57
2023-02-06T07:45:01.105Z,22.57
2023-02-06T07:47:29.618Z,22.17
2023-02-06T07:49:57.611Z,24.60
2023-02-06T07:52:26.610Z,28.77
2023-02-06T07:54:54.471Z,25.13
2023-02-06T07:57:22.679Z,26.90
2023-02-06T07:59:50.845Z,22.57
2023-02-06T08:02:18.433Z,21.57
2023-02-06T08:04:46.111Z,24.37
2023-02-06T08:07:15.120Z,19.00
2023-02-06T08:09:44.257Z,19.17
2023-02-06T08:12:12.138Z,23.17
2023-02-06T08:14:40.017Z,16.93
2023-02-06T08:17:07.996Z,21.57
2023-02-06T08:19:35.943Z,18.13
2023-02-06T08:22:04.197Z,19.30
2023-02-06T08:24:31.884Z,17.97
2023-02-06T08:27:02.800Z,15.20
2023-02-06T08:29:30.460Z,17.50
2023-02-06T08:31:58.032Z,17.10
2023-02-06T08:34:25.755Z,19.37
2023-02-06T08:36:53.301Z,15.10
2023-02-06T08:39:21.213Z,14.13
2023-02-06T08:41:49.846Z,18.17
2023-02-06T08:44:19.436Z,20.23
2023-02-06T08:46:49.662Z,17.13
2023-02-06T08:49:23.086Z,15.47
2023-02-06T08:51:51.151Z,20.03
2023-02-06T08:54:21.903Z,15.17
2023-02-06T08:56:50.450Z,18.40
2023-02-06T08:59:20.710Z,18.13
2023-02-06T09:01:49.206Z,23.03
2023-02-06T09:04:17.716Z,21.50
2023-02-06T09:06:47.677Z,21.70
2023-02-06T09:09:16.224Z,18.40
2023-02-06T09:11:44.293Z,17.13
2023-02-06T09:14:15.160Z,16.97
2023-02-06T09:17:02.839Z,18.27
2023-02-06T09:19:30.481Z,15.13
2023-02-06T09:21:58.202Z,15.87
2023-02-06T09:24:27.218Z,16.77
2023-02-06T09:26:59.934Z,14.43
2023-02-06T09:29:29.688Z,16.53
2023-02-06T09:31:58.026Z,15.13
2023-02-06T09:34:28.019Z,21.33
2023-02-06T09:36:56.777Z,14.87
2023-02-06T09:39:25.535Z,15.73
2023-02-06T09:41:55.853Z,11.00
2023-02-06T09:44:30.737Z,13.70
2023-02-06T09:47:02.117Z,11.20
2023-02-06T09:49:41.123Z,14.10
2023-02-06T09:52:36.392Z,10.90
2023-02-06T09:55:11.668Z,11.97
2023-02-06T09:57:46.856Z,13.90
2023-02-06T10:00:29.656Z,12.73
2023-02-06T10:03:23.971Z,15.03
2023-02-06T10:06:07.868Z,14.40
2023-02-06T10:08:39.948Z,11.67
2023-02-06T10:11:15.270Z,13.53
2023-02-06T10:13:49.770Z,12.43
2023-02-06T10:16:32.514Z,11.30
2023-02-06T10:19:04.199Z,11.40
2023-02-06T10:21:41.293Z,11.67
2023-02-06T10:24:16.167Z,13.80
2023-02-06T10:26:43.887Z,11.93
2023-02-06T10:29:20.624Z,13.50
2023-02-06T10:31:59.931Z,15.23
2023-02-06T10:34:45.889Z,15.37
2023-02-06T10:37:29.759Z,12.33
2023-02-06T10:40:11.848Z,11.37
2023-02-06T10:42:47.794Z,13.00
2023-02-06T10:45:33.600Z,11.20
2023-02-06T10:48:05.684Z,12.30
2023-02-06T10:50:38.256Z,12.63
2023-02-06T10:53:14.410Z,12.27
2023-02-06T10:55:49.107Z,8.63
2023-02-06T10:58:21.771Z,9.33
2023-02-06T11:00:52.307Z,14.33
2023-02-06T11:03:23.389Z,16.03
2023-02-06T11:05:52.445Z,10.60
2023-02-06T11:08:23.949Z,12.23
2023-02-06T11:10:52.077Z,13.07
2023-02-06T11:13:26.776Z,14.17
2023-02-06T11:16:02.446Z,10.17
2023-02-06T11:18:34.160Z,11.57
2023-02-06T11:21:02.640Z,10.90
2023-02-06T11:23:34.614Z,9.87
2023-02-06T11:26:10.463Z,10.30
2023-02-06T11:28:42.098Z,10.13
2023-02-06T11:31:10.884Z,11.43
2023-02-06T11:33:46.741Z,12.87
2023-02-06T11:36:26.538Z,9.03
2023-02-06T11:39:00.921Z,9.73
2023-02-06T11:41:29.681Z,9.20
2023-02-06T11:44:02.582Z,7.93
2023-02-06T11:46:32.384Z,11.00
2023-02-06T11:49:07.593Z,8.07
2023-02-06T11:51:51.358Z,9.23
2023-02-06T11:54:28.323Z,9.40
2023-02-06T11:56:57.935Z,10.50
2023-02-06T11:59:27.095Z,7.77
2023-02-06T12:01:55.887Z,7.33
2023-02-06T12:04:27.238Z,7.73
2023-02-06T12:07:01.936Z,10.70
2023-02-06T12:09:31.409Z,9.13
2023-02-06T12:12:04.170Z,9.43
2023-02-06T12:15:10.250Z,8.90
2023-02-06T12:17:51.739Z,7.60
2023-02-06T12:20:26.731Z,8.50
2023-02-06T12:22:58.304Z,8.97
2023-02-06T12:25:33.509Z,7.53
2023-02-06T12:28:10.579Z,5.97
2023-02-06T12:30:44.971Z,8.87
2023-02-06T12:33:17.175Z,7.17
2023-02-06T12:35:48.369Z,9.90
2023-02-06T12:38:24.287Z,6.40
2023-02-06T12:41:08.808Z,5.80
2023-02-06T12:43:40.332Z,7.40
2023-02-06T12:46:14.353Z,6.40
2023-02-06T12:48:47.630Z,7.90
2023-02-06T12:51:21.344Z,6.70
2023-02-06T12:53:54.586Z,6.97
2023-02-06T12:56:29.294Z,8.47
2023-02-06T12:59:12.228Z,6.27
2023-02-06T13:01:52.070Z,7.30
2023-02-06T13:04:24.523Z,6.23
2023-02-06T13:06:55.224Z,10.60
2023-02-06T13:09:27.623Z,5.63
2023-02-06T13:12:08.644Z,8.33
2023-02-06T13:14:38.757Z,8.80
2023-02-06T13:17:17.025Z,7.50
2023-02-06T13:19:54.649Z,5.87
2023-02-06T13:22:40.749Z,11.00
2023-02-06T13:25:54.394Z,9.33
2023-02-06T13:28:42.247Z,8.03
2023-02-06T13:31:33.666Z,6.13
2023-02-06T13:34:08.918Z,7.83
2023-02-06T13:36:50.327Z,9.40
2023-02-06T13:39:33.620Z,5.70
2023-02-06T13:42:19.427Z,7.50
2023-02-06T13:44:47.076Z,7.47
2023-02-06T13:47:44.442Z,6.20
2023-02-06T13:50:39.860Z,9.20
2023-02-06T13:53:33.042Z,6.23
2023-02-06T13:56:25.128Z,4.17
2023-02-06T13:58:55.201Z,5.00
2023-02-06T14:01:28.900Z,4.87
2023-02-06T14:03:59.481Z,5.23
2023-02-06T14:06:40.314Z,4.97
2023-02-06T14:09:34.466Z,3.80
2023-02-06T14:12:31.124Z,4.17
2023-02-06T14:15:09.796Z,4.67
2023-02-06T14:17:48.728Z,3.67
2023-02-06T14:20:26.763Z,4.90
2023-02-06T14:23:05.793Z,4.87
2023-02-06T14:25:45.968Z,5.10
2023-02-06T14:28:22.926Z,3.37
2023-02-06T14:30:59.137Z,4.03
2023-02-06T14:33:48.036Z,5.00
2023-02-06T14:36:29.082Z,4.63
2023-02-06T14:39:31.194Z,3.90
2023-02-06T14:41:59.198Z,4.07
2023-02-06T14:44:32.671Z,5.47
2023-02-06T14:47:00.555Z,4.73
2023-02-06T14:49:32.865Z,3.00
2023-02-06T14:52:02.250Z,4.27
2023-02-06T14:54:34.490Z,3.20
2023-02-06T14:57:04.888Z,3.07
2023-02-06T14:59:34.042Z,5.27
2023-02-06T15:02:14.196Z,5.27
2023-02-06T15:04:47.322Z,4.93
2023-02-06T15:07:23.465Z,3.63
2023-02-06T15:10:00.723Z,3.30
2023-02-06T15:12:30.756Z,3.80
2023-02-06T15:15:02.702Z,6.20
2023-02-06T15:17:31.680Z,4.93
2023-02-06T15:20:15.753Z,5.03
2023-02-06T15:22:43.372Z,3.57
2023-02-06T15:25:33.697Z,3.73
2023-02-06T15:28:05.971Z,4.53
2023-02-06T15:30:36.994Z,3.27
2023-02-06T15:33:10.129Z,3.07
2023-02-06T15:35:40.963Z,5.00
2023-02-06T15:38:12.537Z,3.10
2023-02-06T15:40:46.282Z,3.43
2023-02-06T15:43:17.314Z,3.60
2023-02-06T15:45:46.295Z,5.70
2023-02-06T15:48:20.408Z,3.37
2023-02-06T15:51:03.989Z,4.57
2023-02-06T15:53:35.384Z,6.67
2023-02-06T15:56:06.987Z,4.27
2023-02-06T15:58:37.325Z,6.23
2023-02-06T16:01:14.012Z,3.93
2023-02-06T16:03:42.765Z,11.10
2023-02-06T16:06:15.384Z,10.17
2023-02-06T16:08:50.151Z,7.17
2023-02-06T16:11:37.372Z,4.47
2023-02-06T16:14:07.008Z,5.73
2023-02-06T16:16:34.641Z,4.30
2023-02-06T16:19:03.045Z,3.00
2023-02-06T16:21:32.516Z,5.63
2023-02-06T16:24:08.019Z,4.00
2023-02-06T16:26:44.871Z,16.33
2023-02-06T16:29:25.533Z,21.17
2023-02-06T16:31:59.399Z,16.53
2023-02-06T16:34:35.981Z,15.70
2023-02-06T16:37:11.122Z,9.00
2023-02-06T16:39:40.715Z,12.93
2023-02-06T16:42:13.954Z,11.40
2023-02-06T16:44:45.584Z,6.90
2023-02-06T16:47:16.317Z,7.00
2023-02-06T16:49:49.558Z,10.83
2023-02-06T16:52:20.748Z,6.83
2023-02-06T16:54:49.590Z,8.70
2023-02-06T16:57:25.621Z,5.07
2023-02-06T16:59:53.566Z,4.97
2023-02-06T17:02:22.038Z,6.47
2023-02-06T17:04:49.880Z,4.07
2023-02-06T17:07:21.584Z,7.53
2023-02-06T17:09:50.474Z,7.70
2023-02-06T17:12:21.323Z,6.07
2023-02-06T17:14:50.510Z,7.10
2023-02-06T17:17:20.921Z,7.40
2023-02-06T17:19:49.355Z,16.20
2023-02-06T17:22:18.363Z,9.93
2023-02-06T17:24:46.407Z,10.37
2023-02-06T17:27:16.333Z,8.23
2023-02-06T17:29:47.378Z,7.50
2023-02-06T17:32:21.634Z,10.07
2023-02-06T17:34:50.835Z,8.77
2023-02-06T17:37:21.540Z,5.50
2023-02-06T17:39:51.458Z,5.33
2023-02-06T17:42:19.712Z,6.00
2023-02-06T17:44:48.207Z,6.53
2023-02-06T17:47:17.701Z,7.40
2023-02-06T17:49:47.023Z,5.53
2023-02-06T17:52:14.981Z,4.33
2023-02-06T17:54:42.596Z,4.90
2023-02-06T17:57:11.179Z,3.97
2023-02-06T17:59:39.433Z,2.93
2023-02-06T18:02:08.236Z,3.57
2023-02-06T18:04:37.601Z,4.17
2023-02-06T18:07:05.282Z,4.80
2023-02-06T18:09:33.310Z,3.97
2023-02-06T18:12:01.308Z,5.87
2023-02-06T18:14:29.466Z,3.37
2023-02-06T18:16:57.147Z,4.37
2023-02-06T18:19:25.251Z,6.63
2023-02-06T18:21:54.422Z,5.27
2023-02-06T18:24:22.189Z,4.53
2023-02-06T18:26:49.829Z,7.10
2023-02-06T18:29:17.498Z,6.93
2023-02-06T18:31:45.473Z,7.50
2023-02-06T18:34:14.571Z,7.83
2023-02-06T18:36:42.567Z,9.73
2023-02-06T18:39:12.795Z,6.07
2023-02-06T18:41:58.084Z,6.33
2023-02-06T18:44:25.737Z,5.10
2023-02-06T18:46:53.510Z,3.90
2023-02-06T18:49:21.132Z,4.20
2023-02-06T18:51:49.332Z,3.60
2023-02-06T18:54:18.826Z,4.57
2023-02-06T18:56:48.919Z,7.00
2023-02-06T18:59:17.672Z,6.50
2023-02-06T19:01:45.577Z,7.20
2023-02-06T19:04:13.553Z,5.13
2023-02-06T19:06:43.092Z,6.60
2023-02-06T19:09:14.042Z,5.17
2023-02-06T19:11:43.916Z,8.30
2023-02-06T19:14:15.680Z,4.80
2023-02-06T19:16:44.615Z,5.20
2023-02-06T19:19:16.407Z,6.43
2023-02-06T19:21:45.135Z,5.10
2023-02-06T19:24:15.219Z,5.17
2023-02-06T19:26:44.466Z,6.90
2023-02-06T19:29:16.786Z,7.23
2023-02-06T19:31:45.194Z,5.70
2023-02-06T19:34:13.260Z,6.03
2023-02-06T19:36:40.892Z,4.73
2023-02-06T19:39:10.758Z,6.00
2023-02-06T19:41:39.646Z,5.00
2023-02-06T19:44:11.741Z,6.77
2023-02-06T19:46:41.174Z,6.50
2023-02-06T19:49:09.930Z,7.40
2023-02-06T19:51:39.907Z,6.93
2023-02-06T19:54:08.567Z,10.00
2023-02-06T19:56:41.664Z,8.73
2023-02-06T19:59:18.308Z,11.90
2023-02-06T20:01:46.941Z,9.43
2023-02-06T20:04:15.072Z,6.57
2023-02-06T20:06:44.031Z,6.40
2023-02-06T20:09:13.293Z,5.07
2023-02-06T20:11:41.834Z,11.60
2023-02-06T20:14:12.539Z,6.27
2023-02-06T20:16:42.608Z,7.50
2023-02-06T20:19:13.094Z,7.47
2023-02-06T20:21:45.143Z,6.70
2023-02-06T20:24:15.517Z,7.80
2023-02-06T20:26:44.746Z,7.60
2023-02-06T20:29:20.396Z,6.60
2023-02-06T20:31:49.042Z,8.27
2023-02-06T20:34:17.827Z,9.70
2023-02-06T20:36:47.005Z,8.43
2023-02-06T20:39:15.600Z,9.33
2023-02-06T20:41:45.392Z,8.10
2023-02-06T20:44:15.257Z,10.67
2023-02-06T20:46:43.787Z,10.53
2023-02-06T20:49:15.545Z,7.50
2023-02-06T20:51:44.226Z,11.07
2023-02-06T20:54:12.985Z,7.60
2023-02-06T20:56:41.144Z,6.57
2023-02-06T20:59:09.294Z,8.93
2023-02-06T21:01:38.975Z,9.50
2023-02-06T21:04:08.540Z,10.00
2023-02-06T21:06:38.525Z,8.70
2023-02-06T21:09:08.160Z,8.60
2023-02-06T21:11:40.073Z,8.17
2023-02-06T21:14:08.269Z,8.30
2023-02-06T21:16:37.533Z,10.40
2023-02-06T21:19:09.930Z,10.10
2023-02-06T21:21:38.274Z,8.20
2023-02-06T21:24:07.745Z,10.17
2023-02-06T21:26:36.513Z,11.37
2023-02-06T21:29:05.967Z,6.70
2023-02-06T21:31:37.929Z,6.83
2023-02-06T21:34:12.846Z,7.43
2023-02-06T21:36:42.389Z,8.23
2023-02-06T21:39:10.500Z,9.17
2023-02-06T21:41:38.330Z,8.67
2023-02-06T21:44:06.587Z,7.33
2023-02-06T21:46:34.712Z,10.30
2023-02-06T21:49:03.725Z,9.43
2023-02-06T21:51:32.853Z,7.20
2023-02-06T21:54:00.864Z,7.33
2023-02-06T21:56:30.098Z,6.87
2023-02-06T21:58:58.462Z,9.53
2023-02-06T22:01:29.598Z,13.10
2023-02-06T22:03:58.306Z,8.20
2023-02-06T22:06:27.189Z,10.17
2023-02-06T22:09:04.329Z,9.03
2023-02-06T22:11:33.476Z,10.30
2023-02-06T22:14:04.561Z,8.60
2023-02-06T22:16:32.568Z,9.30
2023-02-06T22:19:02.022Z,10.20
2023-02-06T22:21:31.954Z,8.97
2023-02-06T22:24:04.952Z,8.70
2023-02-06T22:26:33.814Z,9.07
2023-02-06T22:29:02.467Z,10.27
2023-02-06T22:31:32.612Z,8.50
2023-02-06T22:34:01.187Z,7.00
2023-02-06T22:36:30.962Z,9.17
2023-02-06T22:39:02.369Z,7.60
2023-02-06T22:41:31.171Z,7.07
2023-02-06T22:43:59.376Z,8.43
2023-02-06T22:46:29.232Z,8.17
2023-02-06T22:48:58.186Z,10.30
2023-02-06T22:51:25.912Z,9.27
2023-02-06T22:53:54.284Z,8.63
2023-02-06T22:56:29.540Z,8.80
2023-02-06T22:58:59.270Z,8.83
2023-02-06T23:01:31.833Z,9.10
2023-02-06T23:04:00.185Z,7.20
2023-02-06T23:06:28.935Z,10.17
2023-02-06T23:08:58.354Z,11.33
2023-02-06T23:11:28.508Z,8.53
2023-02-06T23:13:58.480Z,10.57
2023-02-06T23:16:26.140Z,10.97
2023-02-06T23:18:54.858Z,9.13
2023-02-06T23:21:25.117Z,9.37
2023-02-06T23:23:55.517Z,9.93
2023-02-06T23:26:24.117Z,10.23
2023-02-06T23:28:53.044Z,10.17
2023-02-06T23:31:20.702Z,8.67
2023-02-06T23:33:48.342Z,8.53
2023-02-06T23:36:18.234Z,6.77
2023-02-06T23:38:47.132Z,7.43
2023-02-06T23:41:16.882Z,10.67
2023-02-06T23:43:45.004Z,7.13
2023-02-06T23:46:15.250Z,7.20
2023-02-06T23:48:42.939Z,9.03
2023-02-06T23:51:11.280Z,11.03
2023-02-06T23:53:39.145Z,9.37
2023-02-06T23:56:14.596Z,8.60
2023-02-06T23:58:42.182Z,7.70
